Time;durP1;ratioP1;P1;durP2;ratioP2;P2;SDS_P1;SDS_P2;PMS_P1;PMS_P2;Temp;Humidity;BMP_temperature;BMP_pressure;BME280_temperature;BME280_humidity;BME280_pressure;Samples;Min_cycle;Max_cycle;Signal;HPM_P1;HPM_P2
2023/01/26 00:01:20;;;;;;;11.40;4.25;;;1.70;99.90;;;;;;4963803;28;20125;-79
2023/01/26 00:03:47;;;;;;;11.93;5.95;;;1.80;99.90;;;;;;4955915;28;20110;-79
2023/01/26 00:06:16;;;;;;;12.55;6.45;;;1.70;99.90;;;;;;4958554;28;20043;-79
2023/01/26 00:08:45;;;;;;;7.32;4.75;;;1.80;99.90;;;;;;4961924;28;20106;-80
2023/01/26 00:11:15;;;;;;;14.35;5.13;;;1.50;99.90;;;;;;4980331;28;20042;-80
2023/01/26 00:13:42;;;;;;;11.88;4.60;;;1.40;99.90;;;;;;4980325;28;20030;-80
2023/01/26 00:16:11;;;;;;;13.00;5.70;;;1.50;99.90;;;;;;4963686;28;20026;-80
2023/01/26 00:18:38;;;;;;;7.45;4.45;;;1.50;99.90;;;;;;4972515;28;20050;-80
2023/01/26 00:21:07;;;;;;;14.95;5.75;;;1.60;99.90;;;;;;4971577;28;20038;-80
2023/01/26 00:23:34;;;;;;;6.10;3.72;;;1.70;99.90;;;;;;4971719;28;20035;-80
2023/01/26 00:26:00;;;;;;;8.90;5.10;;;1.70;99.90;;;;;;4968039;28;20038;-80
2023/01/26 00:28:27;;;;;;;11.93;5.22;;;1.40;99.90;;;;;;4959046;28;20105;-80
2023/01/26 00:31:09;;;;;;;9.57;5.32;;;1.30;99.90;;;;;;4960481;28;20033;-79
2023/01/26 00:33:34;;;;;;;;;;;1.40;99.90;;;;;;4959750;28;20043;-80
2023/01/26 00:36:00;;;;;;;12.55;4.38;;;1.50;99.90;;;;;;4961578;28;19918;-80
2023/01/26 00:38:27;;;;;;;20.38;6.53;;;1.50;99.90;;;;;;4963694;28;20070;-79
2023/01/26 00:40:52;;;;;;;10.32;5.00;;;1.40;99.90;;;;;;4960362;28;20510;-79
2023/01/26 00:43:18;;;;;;;13.13;5.75;;;1.50;99.90;;;;;;4966591;28;20035;-80
2023/01/26 00:45:44;;;;;;;23.65;6.63;;;1.40;99.90;;;;;;4980465;28;20527;-80
2023/01/26 00:48:09;;;;;;;14.73;7.03;;;1.50;99.90;;;;;;4968573;28;20062;-79
2023/01/26 00:50:35;;;;;;;9.55;4.90;;;1.50;99.90;;;;;;4971522;28;20081;-80
2023/01/26 00:53:01;;;;;;;13.07;5.32;;;1.50;99.90;;;;;;4970515;28;20035;-80
2023/01/26 00:55:31;;;;;;;11.63;5.00;;;1.50;99.90;;;;;;4969077;28;20376;-80
2023/01/26 00:58:01;;;;;;;11.45;4.93;;;1.50;99.90;;;;;;4966828;28;20510;-80
2023/01/26 01:00:27;;;;;;;13.77;7.18;;;1.60;99.90;;;;;;4969244;28;20554;-80
2023/01/26 01:02:55;;;;;;;12.25;5.00;;;1.40;99.90;;;;;;4982697;28;20039;-79
2023/01/26 01:05:22;;;;;;;15.38;6.55;;;1.40;99.90;;;;;;4966902;28;20551;-79
2023/01/26 01:07:48;;;;;;;6.78;3.33;;;1.50;99.90;;;;;;4959509;28;20997;-80
2023/01/26 01:10:14;;;;;;;9.15;4.18;;;1.40;99.90;;;;;;4953782;28;20123;-80
2023/01/26 01:12:40;;;;;;;12.93;5.45;;;1.40;99.90;;;;;;4963465;28;20027;-79
2023/01/26 01:15:07;;;;;;;8.48;3.88;;;1.30;99.90;;;;;;4964353;28;20023;-80
2023/01/26 01:17:35;;;;;;;10.10;5.22;;;1.30;99.90;;;;;;4968800;28;20038;-81
2023/01/26 01:20:02;;;;;;;8.27;4.63;;;1.40;99.90;;;;;;4972016;28;20030;-80
2023/01/26 01:22:28;;;;;;;12.45;3.80;;;1.50;99.90;;;;;;4969245;28;20070;-80
2023/01/26 01:24:54;;;;;;;6.50;3.35;;;1.40;99.90;;;;;;4971132;28;20069;-80
2023/01/26 01:27:19;;;;;;;10.25;4.35;;;1.50;99.90;;;;;;4971638;28;20047;-80
2023/01/26 01:29:45;;;;;;;13.07;5.40;;;1.40;99.90;;;;;;4971345;28;20026;-79
2023/01/26 01:32:11;;;;;;;7.88;3.92;;;1.40;99.90;;;;;;4970817;28;20099;-80
2023/01/26 01:34:36;;;;;;;12.02;5.05;;;1.40;99.90;;;;;;4971665;28;20031;-80
2023/01/26 01:37:02;;;;;;;9.95;4.55;;;1.30;99.90;;;;;;4971575;28;20026;-80
2023/01/26 01:39:28;;;;;;;7.75;4.97;;;1.40;99.90;;;;;;4971260;28;20043;-80
2023/01/26 01:41:53;;;;;;;15.40;4.78;;;1.40;99.90;;;;;;4972620;28;20042;-80
2023/01/26 01:44:23;;;;;;;11.20;6.47;;;1.30;99.90;;;;;;4971809;28;20041;-79
2023/01/26 01:47:25;;;;;;;16.38;6.55;;;1.40;99.90;;;;;;4955828;28;20034;-79
2023/01/26 01:49:53;;;;;;;14.98;7.30;;;1.40;99.90;;;;;;4972381;28;20027;-80
2023/01/26 01:52:28;;;;;;;14.80;7.55;;;1.20;99.90;;;;;;4972444;28;20110;-79
2023/01/26 01:55:09;;;;;;;11.20;6.18;;;1.30;99.90;;;;;;4986942;28;20031;-80
2023/01/26 01:57:46;;;;;;;11.67;5.03;;;1.30;99.90;;;;;;4957067;28;20152;-80
2023/01/26 02:00:18;;;;;;;14.48;8.15;;;1.30;99.90;;;;;;4955208;28;20039;-80
2023/01/26 02:03:09;;;;;;;12.32;5.88;;;1.30;99.90;;;;;;4981425;28;20073;-80
2023/01/26 02:05:49;;;;;;;13.10;4.68;;;1.20;99.90;;;;;;4960220;28;20050;-80
2023/01/26 02:08:18;;;;;;;14.75;7.55;;;1.30;99.90;;;;;;4977502;28;20030;-80
2023/01/26 02:10:51;;;;;;;15.93;6.18;;;1.30;99.90;;;;;;4969192;28;20031;-80
2023/01/26 02:13:18;;;;;;;13.48;7.03;;;1.30;99.90;;;;;;4972595;28;20050;-80
2023/01/26 02:15:44;;;;;;;11.38;5.88;;;1.30;99.90;;;;;;4976274;28;20054;-80
2023/01/26 02:18:10;;;;;;;15.18;6.22;;;1.40;99.90;;;;;;4970165;28;20046;-80
2023/01/26 02:20:44;;;;;;;21.17;6.47;;;1.20;99.90;;;;;;4968768;28;20042;-80
2023/01/26 02:23:52;;;;;;;15.20;5.93;;;1.20;99.90;;;;;;4973037;28;20038;-79
2023/01/26 02:26:22;;;;;;;10.20;5.05;;;1.30;99.90;;;;;;4965480;28;20070;-80
2023/01/26 02:28:49;;;;;;;21.42;8.35;;;1.30;99.90;;;;;;4971505;28;20522;-80
2023/01/26 02:31:16;;;;;;;12.13;5.32;;;1.30;99.90;;;;;;4970904;28;20031;-80
2023/01/26 02:33:42;;;;;;;11.27;6.88;;;1.20;99.90;;;;;;4990447;23;20410;-75
2023/01/26 02:36:20;;;;;;;14.45;7.38;;;1.20;99.90;;;;;;5010125;28;20505;-75
2023/01/26 02:38:54;;;;;;;13.55;7.22;;;1.20;99.90;;;;;;4995614;28;20034;-76
2023/01/26 02:44:09;;;;;;;13.40;5.60;;;1.10;99.90;;;;;;5010411;28;20466;-76
2023/01/26 02:46:35;;;;;;;12.93;7.10;;;1.10;99.90;;;;;;5011741;28;20034;-76
2023/01/26 02:51:45;;;;;;;11.65;5.68;;;1.20;99.90;;;;;;5013467;28;20500;-76
2023/01/26 02:55:21;;;;;;;13.55;6.30;;;1.20;99.90;;;;;;5008692;28;20034;-75
2023/01/26 02:56:56;;;;;;;9.35;5.85;;;1.20;99.90;;;;;;5012085;28;20481;-75
2023/01/26 02:59:22;;;;;;;11.00;6.47;;;1.20;99.90;;;;;;5012284;28;20034;-75
2023/01/26 03:01:51;;;;;;;15.88;5.43;;;1.20;99.90;;;;;;5013229;28;20084;-75
2023/01/26 03:04:17;;;;;;;15.15;4.68;;;1.20;99.90;;;;;;5006655;28;20022;-75
2023/01/26 03:06:43;;;;;;;12.00;5.22;;;1.20;99.90;;;;;;5012319;28;20032;-75
2023/01/26 03:09:08;;;;;;;11.07;5.50;;;1.10;99.90;;;;;;4994751;28;20477;-75
2023/01/26 03:11:40;;;;;;;11.70;6.00;;;1.10;99.90;;;;;;5013067;28;20026;-75
2023/01/26 03:14:09;;;;;;;22.80;7.25;;;1.10;99.90;;;;;;5009099;28;20046;-75
2023/01/26 03:16:34;;;;;;;16.92;5.53;;;1.20;99.90;;;;;;5010737;28;20473;-76
2023/01/26 03:29:45;;;;;;;7.43;4.97;;;1.00;99.90;;;;;;5007698;28;20482;-75
2023/01/26 03:32:11;;;;;;;22.58;6.05;;;0.90;99.90;;;;;;5012733;28;20029;-77
2023/01/26 03:34:37;;;;;;;17.67;5.88;;;0.90;99.90;;;;;;4994280;28;20034;-76
2023/01/26 03:37:03;;;;;;;11.82;5.80;;;0.90;99.90;;;;;;5011947;28;20040;-76
2023/01/26 03:56:21;;;;;;;11.55;5.75;;;0.80;99.90;;;;;;4996383;28;20029;-76
2023/01/26 03:58:57;;;;;;;11.48;6.43;;;0.80;99.90;;;;;;4994062;28;20034;-76
2023/01/26 04:01:26;;;;;;;7.90;4.07;;;0.70;99.90;;;;;;4987988;28;20038;-76
2023/01/26 04:09:29;;;;;;;21.80;5.57;;;0.70;99.90;;;;;;5010839;28;20033;-76
2023/01/26 04:11:55;;;;;;;12.15;5.22;;;0.70;99.90;;;;;;4997823;28;20062;-75
2023/01/26 04:22:39;;;;;;;8.77;4.03;;;0.80;99.90;;;;;;4977687;28;20149;-76
2023/01/26 04:25:07;;;;;;;10.00;5.15;;;0.90;99.90;;;;;;4974961;28;20026;-75
2023/01/26 04:27:33;;;;;;;12.02;5.13;;;0.90;99.90;;;;;;4991285;28;20117;-75
2023/01/26 04:30:02;;;;;;;4.38;3.15;;;0.90;99.90;;;;;;4991508;28;20030;-75
2023/01/26 04:32:29;;;;;;;7.18;3.95;;;0.90;99.90;;;;;;4992113;28;20026;-75
2023/01/26 04:34:54;;;;;;;9.52;3.47;;;1.00;99.90;;;;;;4999997;28;20461;-75
2023/01/26 04:37:20;;;;;;;7.75;3.42;;;1.00;99.90;;;;;;4967911;28;20042;-76
2023/01/26 04:39:46;;;;;;;7.85;3.88;;;0.90;99.90;;;;;;5008924;28;20115;-75
2023/01/26 04:42:12;;;;;;;5.32;3.35;;;0.90;99.90;;;;;;5004526;28;20046;-73
2023/01/26 04:44:38;;;;;;;9.23;4.35;;;0.90;99.90;;;;;;5010091;28;20048;-73
2023/01/26 04:47:04;;;;;;;6.60;2.80;;;0.90;99.90;;;;;;5009669;28;20037;-75
2023/01/26 04:49:29;;;;;;;8.63;4.60;;;1.00;99.90;;;;;;5009974;28;20034;-75
2023/01/26 04:51:55;;;;;;;6.40;4.53;;;1.00;99.90;;;;;;5005743;28;20072;-74
2023/01/26 04:54:21;;;;;;;10.77;4.10;;;1.00;99.90;;;;;;5010725;28;20028;-74
2023/01/26 04:56:47;;;;;;;5.25;2.67;;;1.00;99.90;;;;;;5009959;28;20034;-76
2023/01/26 04:59:13;;;;;;;9.40;4.32;;;1.00;99.90;;;;;;5008947;28;20125;-75
2023/01/26 05:01:40;;;;;;;6.55;3.95;;;1.00;99.90;;;;;;5011068;28;20425;-75
2023/01/26 05:04:07;;;;;;;3.95;2.25;;;1.00;99.90;;;;;;5009276;28;20034;-74
2023/01/26 05:06:33;;;;;;;8.98;4.70;;;1.10;99.90;;;;;;5010145;28;20560;-74
2023/01/26 05:08:59;;;;;;;4.43;3.72;;;1.10;99.90;;;;;;5010800;28;20064;-74
2023/01/26 05:11:24;;;;;;;8.55;4.47;;;1.10;99.90;;;;;;5009089;28;20061;-74
2023/01/26 05:13:50;;;;;;;6.07;2.28;;;1.10;99.90;;;;;;5010483;28;20036;-75
2023/01/26 05:16:16;;;;;;;5.10;2.80;;;1.00;99.90;;;;;;4993797;28;20034;-75
2023/01/26 05:18:43;;;;;;;4.82;2.92;;;1.00;99.90;;;;;;4988827;28;20120;-74
2023/01/26 05:21:10;;;;;;;4.65;2.45;;;1.00;99.90;;;;;;5010867;28;20091;-75
2023/01/26 05:23:36;;;;;;;5.50;2.70;;;1.00;99.90;;;;;;5007007;28;20052;-76
2023/01/26 05:26:03;;;;;;;8.43;4.65;;;1.00;99.90;;;;;;4985109;28;20064;-76
2023/01/26 05:28:29;;;;;;;8.82;3.53;;;1.00;99.90;;;;;;5010179;28;20482;-76
2023/01/26 05:30:55;;;;;;;11.57;3.75;;;1.00;99.90;;;;;;4993112;28;20081;-75
2023/01/26 05:33:21;;;;;;;5.60;3.53;;;1.10;99.90;;;;;;4990458;28;20022;-75
2023/01/26 05:35:51;;;;;;;13.73;5.22;;;1.10;99.90;;;;;;4981358;28;20486;-76
2023/01/26 05:38:17;;;;;;;14.20;4.00;;;1.00;99.90;;;;;;4999093;28;20080;-76
2023/01/26 05:40:43;;;;;;;7.30;3.50;;;1.10;99.90;;;;;;5009635;28;20102;-76
2023/01/26 05:43:11;;;;;;;6.70;2.92;;;1.10;99.90;;;;;;5013907;28;20109;-76
2023/01/26 05:45:40;;;;;;;7.50;4.45;;;1.10;99.90;;;;;;4996174;28;20029;-76
2023/01/26 05:48:06;;;;;;;6.03;3.47;;;1.10;99.90;;;;;;5011521;28;20028;-77
2023/01/26 05:50:32;;;;;;;5.47;3.08;;;1.10;99.90;;;;;;4993852;28;20022;-76
2023/01/26 05:52:59;;;;;;;6.45;2.92;;;1.10;99.90;;;;;;5012931;28;20540;-75
2023/01/26 05:55:26;;;;;;;4.80;3.22;;;1.00;99.90;;;;;;5012294;28;20099;-75
2023/01/26 05:57:51;;;;;;;9.95;5.25;;;1.00;99.90;;;;;;5006019;28;20061;-77
2023/01/26 06:00:18;;;;;;;7.90;3.95;;;1.00;99.90;;;;;;5014744;28;20057;-73
2023/01/26 06:02:44;;;;;;;12.60;4.25;;;1.10;99.90;;;;;;5013069;28;20038;-75
2023/01/26 06:05:09;;;;;;;13.15;4.50;;;1.00;99.90;;;;;;5008475;28;20991;-73
2023/01/26 06:07:35;;;;;;;5.93;2.90;;;1.00;99.90;;;;;;5012765;28;20042;-75
2023/01/26 06:10:01;;;;;;;11.40;4.88;;;1.10;99.90;;;;;;4995473;28;20085;-74
2023/01/26 06:12:30;;;;;;;8.27;4.30;;;1.00;99.90;;;;;;5013582;28;20034;-75
2023/01/26 06:14:57;;;;;;;7.82;4.22;;;1.00;99.90;;;;;;5012743;28;20034;-75
2023/01/26 06:17:23;;;;;;;8.70;4.43;;;0.90;99.90;;;;;;5007078;28;20513;-75
2023/01/26 06:19:48;;;;;;;3.72;2.17;;;1.00;99.90;;;;;;5014729;28;20124;-78
2023/01/26 06:22:14;;;;;;;13.55;4.55;;;1.00;99.90;;;;;;5013270;28;20025;-75
2023/01/26 06:24:40;;;;;;;4.95;3.63;;;1.00;99.90;;;;;;5013921;28;20029;-74
2023/01/26 06:27:11;;;;;;;8.05;3.20;;;0.80;99.90;;;;;;5007327;28;20026;-75
2023/01/26 06:29:37;;;;;;;26.52;3.85;;;0.90;99.90;;;;;;4997025;28;20026;-75
2023/01/26 06:32:02;;;;;;;9.00;4.05;;;0.90;99.90;;;;;;5009889;28;20034;-76
2023/01/26 06:34:28;;;;;;;4.57;2.88;;;1.00;99.90;;;;;;4996723;28;20080;-74
2023/01/26 06:36:55;;;;;;;7.40;3.58;;;0.90;99.90;;;;;;4992513;28;20034;-75
2023/01/26 06:39:20;;;;;;;10.63;4.10;;;0.90;99.90;;;;;;4992319;28;20073;-75
2023/01/26 06:41:46;;;;;;;11.02;4.75;;;0.80;99.90;;;;;;4997645;28;20054;-75
2023/01/26 06:44:12;;;;;;;7.60;3.92;;;0.90;99.90;;;;;;5013002;28;20109;-76
2023/01/26 06:46:38;;;;;;;7.43;4.05;;;0.90;99.90;;;;;;5002281;28;20036;-76
2023/01/26 06:49:04;;;;;;;9.38;3.47;;;0.90;99.90;;;;;;5013031;28;20030;-76
2023/01/26 06:51:51;;;;;;;7.50;3.53;;;1.00;99.90;;;;;;5010821;28;20364;-79
2023/01/26 06:54:17;;;;;;;10.88;5.28;;;1.10;99.90;;;;;;5005087;28;20041;-75
2023/01/26 06:56:43;;;;;;;7.47;4.55;;;1.10;99.90;;;;;;5011796;28;20068;-76
2023/01/26 06:59:09;;;;;;;8.35;3.97;;;1.10;99.90;;;;;;4979753;28;20080;-80
2023/01/26 07:01:47;;;;;;;12.13;4.55;;;1.10;99.90;;;;;;5011477;28;20455;-80
2023/01/26 07:04:14;;;;;;;5.20;3.60;;;1.10;99.90;;;;;;4995869;28;20085;-75
2023/01/26 07:06:40;;;;;;;10.70;3.42;;;1.00;99.90;;;;;;5008046;28;20038;-73
2023/01/26 07:09:05;;;;;;;5.60;2.58;;;1.00;99.90;;;;;;5008683;28;20022;-74
2023/01/26 07:11:31;;;;;;;8.32;5.00;;;0.90;99.90;;;;;;4985779;28;20038;-74
2023/01/26 07:13:58;;;;;;;6.97;3.08;;;1.00;99.90;;;;;;5012904;28;20037;-74
2023/01/26 07:16:24;;;;;;;8.82;4.38;;;0.90;99.90;;;;;;5008670;28;20056;-75
2023/01/26 07:18:51;;;;;;;7.22;3.15;;;0.90;99.90;;;;;;4995460;28;20033;-74
2023/01/26 07:21:18;;;;;;;8.25;3.45;;;0.90;99.90;;;;;;5003128;28;20118;-74
2023/01/26 07:23:45;;;;;;;10.23;4.05;;;0.90;99.90;;;;;;4991767;28;20109;-74
2023/01/26 07:26:11;;;;;;;5.45;2.28;;;0.80;99.90;;;;;;5002648;28;20057;-74
2023/01/26 07:28:36;;;;;;;7.97;3.70;;;0.70;99.90;;;;;;5003585;28;20402;-73
2023/01/26 07:31:13;;;;;;;8.50;3.00;;;0.80;99.90;;;;;;5009074;28;20034;-73
2023/01/26 07:33:39;;;;;;;8.55;3.13;;;0.90;99.90;;;;;;5010897;28;20553;-74
2023/01/26 07:36:05;;;;;;;15.50;3.10;;;0.80;99.90;;;;;;5012507;28;20449;-74
2023/01/26 07:38:32;;;;;;;6.55;2.95;;;0.90;99.90;;;;;;5006113;28;20034;-73
2023/01/26 07:41:03;;;;;;;6.20;2.67;;;1.00;99.90;;;;;;5005813;28;20065;-74
2023/01/26 07:43:32;;;;;;;5.45;3.15;;;0.80;99.90;;;;;;5006000;28;20461;-74
2023/01/26 07:45:57;;;;;;;6.13;3.03;;;1.00;99.90;;;;;;5009539;28;20390;-74
2023/01/26 07:48:23;;;;;;;4.90;2.13;;;0.90;99.90;;;;;;5008263;28;20063;-76
2023/01/26 07:50:49;;;;;;;8.48;2.38;;;0.90;99.90;;;;;;5008890;28;20021;-75
2023/01/26 07:53:21;;;;;;;2.72;1.55;;;0.90;99.90;;;;;;5006098;28;20621;-76
2023/01/26 07:55:48;;;;;;;7.72;2.90;;;0.80;99.90;;;;;;5012282;28;20362;-75
2023/01/26 07:58:14;;;;;;;4.30;2.42;;;0.80;99.90;;;;;;5008957;28;20491;-75
2023/01/26 08:00:40;;;;;;;6.13;2.53;;;0.80;99.90;;;;;;4999695;28;20108;-77
2023/01/26 08:03:06;;;;;;;8.15;3.35;;;0.80;99.90;;;;;;5008031;28;20034;-75
2023/01/26 08:05:31;;;;;;;6.38;2.90;;;0.80;99.90;;;;;;5010005;28;20037;-75
2023/01/26 08:08:01;;;;;;;5.18;3.28;;;0.70;99.90;;;;;;5007407;28;20026;-75
2023/01/26 08:10:30;;;;;;;5.50;3.65;;;0.70;99.90;;;;;;5012378;28;20029;-75
2023/01/26 08:13:00;;;;;;;6.88;3.67;;;0.70;99.90;;;;;;5010427;28;20033;-75
2023/01/26 08:15:27;;;;;;;4.72;2.78;;;0.80;99.90;;;;;;5011881;28;20052;-76
2023/01/26 08:17:53;;;;;;;5.78;2.65;;;0.80;99.90;;;;;;4992852;28;20061;-76
2023/01/26 08:20:19;;;;;;;6.63;3.80;;;0.80;99.90;;;;;;5010894;28;20547;-76
2023/01/26 08:22:45;;;;;;;3.70;2.17;;;0.80;99.90;;;;;;5007606;28;20038;-75
2023/01/26 08:25:10;;;;;;;5.63;2.28;;;0.70;99.90;;;;;;5010434;28;20038;-75
2023/01/26 08:27:36;;;;;;;4.40;3.10;;;0.70;99.90;;;;;;5010420;28;20034;-76
2023/01/26 08:30:02;;;;;;;6.00;2.72;;;0.80;99.90;;;;;;5003220;28;20038;-75
2023/01/26 08:32:30;;;;;;;3.22;1.90;;;0.80;99.90;;;;;;5010217;28;20033;-75
2023/01/26 08:34:56;;;;;;;2.83;1.77;;;0.80;99.90;;;;;;5056704;23;20045;-76
2023/01/26 08:37:22;;;;;;;5.28;2.78;;;0.70;99.90;;;;;;5012875;28;20029;-76
2023/01/26 08:39:48;;;;;;;5.18;2.45;;;0.80;99.90;;;;;;5027114;28;20036;-77
2023/01/26 08:42:13;;;;;;;4.97;2.47;;;0.80;99.90;;;;;;5028983;28;20083;-76
2023/01/26 08:44:39;;;;;;;5.70;2.97;;;0.80;99.90;;;;;;5020249;28;20055;-77
2023/01/26 08:47:05;;;;;;;3.97;2.53;;;0.80;99.90;;;;;;5010779;28;20045;-77
2023/01/26 08:49:30;;;;;;;3.35;2.08;;;0.80;99.90;;;;;;5010676;28;20041;-77
2023/01/26 08:51:56;;;;;;;7.50;2.65;;;0.80;99.90;;;;;;5011733;28;20030;-79
2023/01/26 08:54:22;;;;;;;3.88;2.40;;;0.80;99.90;;;;;;5011063;28;20069;-77
2023/01/26 08:56:48;;;;;;;4.68;2.22;;;0.80;99.90;;;;;;5008831;28;20018;-76
2023/01/26 08:59:13;;;;;;;5.35;2.65;;;0.90;99.90;;;;;;5010954;28;20029;-77
2023/01/26 09:01:39;;;;;;;5.22;2.17;;;0.90;99.90;;;;;;5011272;28;20029;-77
2023/01/26 09:04:05;;;;;;;5.13;2.25;;;0.80;99.90;;;;;;5010507;28;20034;-77
2023/01/26 09:06:31;;;;;;;5.43;2.33;;;0.80;99.90;;;;;;5010038;28;20061;-76
2023/01/26 09:08:57;;;;;;;3.78;2.47;;;0.80;99.90;;;;;;5010527;28;20025;-76
2023/01/26 09:11:23;;;;;;;6.93;3.05;;;0.70;99.90;;;;;;5009477;28;20578;-76
2023/01/26 09:13:55;;;;;;;3.83;2.17;;;0.80;99.90;;;;;;5010169;28;20034;-76
2023/01/26 09:16:21;;;;;;;;;;;0.80;99.90;;;;;;4995088;28;20038;-76
2023/01/26 09:18:52;;;;;;;4.35;2.30;;;0.80;99.90;;;;;;5009226;28;20340;-77
2023/01/26 09:21:18;;;;;;;4.25;2.45;;;0.80;99.90;;;;;;5001904;28;20030;-76
2023/01/26 09:23:44;;;;;;;2.72;1.88;;;0.90;99.90;;;;;;5009182;28;20197;-77
2023/01/26 09:26:10;;;;;;;3.78;2.40;;;0.90;99.90;;;;;;5010459;28;20030;-76
2023/01/26 09:28:36;;;;;;;2.92;1.65;;;0.80;99.90;;;;;;5009754;28;20502;-76
2023/01/26 09:31:05;;;;;;;6.32;3.35;;;0.90;99.90;;;;;;4994842;28;20065;-76
2023/01/26 09:33:32;;;;;;;3.78;2.00;;;0.80;99.90;;;;;;5009184;28;20397;-77
2023/01/26 09:36:10;;;;;;;5.97;1.83;;;0.90;99.90;;;;;;4990706;28;20109;-77
2023/01/26 09:38:36;;;;;;;4.10;2.60;;;0.90;99.90;;;;;;5009810;28;20057;-77
2023/01/26 09:42:09;;;;;;;6.07;2.30;;;0.90;99.90;;;;;;4995418;28;20057;-77
2023/01/26 09:45:11;;;;;;;4.65;1.30;;;0.80;99.90;;;;;;5000303;28;20112;-80
2023/01/26 09:48:01;;;;;;;5.88;2.25;;;0.80;99.90;;;;;;4977897;28;20052;-81
2023/01/26 09:50:36;;;;;;;4.55;2.15;;;0.80;99.90;;;;;;5010533;28;20045;-76
2023/01/26 09:53:18;;;;;;;2.95;1.77;;;0.90;99.90;;;;;;5009192;28;20495;-76
2023/01/26 09:55:44;;;;;;;;;;;0.90;99.90;;;;;;5009474;28;20034;-76
2023/01/26 09:58:38;;;;;;;2.50;2.10;;;0.90;99.90;;;;;;5009992;28;19917;-80
2023/01/26 10:01:11;;;;;;;2.63;1.38;;;0.90;99.90;;;;;;4991937;28;20084;-80
2023/01/26 10:04:14;;;;;;;5.00;2.30;;;0.90;99.90;;;;;;4991995;28;20132;-78
2023/01/26 10:06:40;;;;;;;2.72;1.42;;;0.90;99.90;;;;;;5005098;28;20565;-78
2023/01/26 10:09:21;;;;;;;2.45;1.70;;;0.90;99.90;;;;;;5008826;28;20496;-78
2023/01/26 10:12:01;;;;;;;3.45;1.90;;;1.00;99.90;;;;;;5009159;28;20045;-79
2023/01/26 10:14:35;;;;;;;5.15;2.83;;;1.00;99.90;;;;;;4992706;28;20055;-78
2023/01/26 10:17:05;;;;;;;3.47;2.22;;;1.00;99.90;;;;;;5009079;28;20042;-78
2023/01/26 10:19:41;;;;;;;3.17;2.28;;;1.10;99.90;;;;;;5008746;28;20367;-79
2023/01/26 10:22:43;;;;;;;4.20;1.67;;;1.10;99.90;;;;;;5009089;28;20030;-79
2023/01/26 10:25:18;;;;;;;4.55;1.73;;;1.20;99.90;;;;;;5008370;28;20065;-77
2023/01/26 10:27:45;;;;;;;7.93;3.42;;;1.20;99.90;;;;;;5009022;28;20527;-73
2023/01/26 10:30:17;;;;;;;5.88;3.35;;;1.10;99.90;;;;;;5012127;28;20513;-74
2023/01/26 10:32:46;;;;;;;3.78;1.75;;;1.20;99.90;;;;;;5013504;28;20500;-76
2023/01/26 10:35:24;;;;;;;6.55;2.47;;;1.40;99.90;;;;;;5009847;28;20038;-80
2023/01/26 10:37:53;;;;;;;4.40;2.33;;;1.50;99.90;;;;;;4988760;28;20449;-78
2023/01/26 10:40:19;;;;;;;5.28;2.50;;;1.60;99.90;;;;;;4980015;28;20033;-79
2023/01/26 10:42:58;;;;;;;6.50;2.30;;;1.60;99.90;;;;;;5007985;28;20030;-80
2023/01/26 10:45:31;;;;;;;5.10;1.88;;;1.60;99.90;;;;;;5015886;28;20030;-80
2023/01/26 10:48:38;;;;;;;3.35;2.33;;;1.60;99.90;;;;;;5014476;28;20037;-87
2023/01/26 10:51:26;;;;;;;3.65;1.73;;;1.60;99.90;;;;;;5011779;28;20493;-89
2023/01/26 10:54:13;;;;;;;5.15;2.97;;;1.60;99.90;;;;;;5012844;28;20152;-85
2023/01/26 10:57:12;;;;;;;3.50;1.88;;;1.60;99.90;;;;;;5013304;28;20048;-87
2023/01/26 10:59:58;;;;;;;4.90;2.05;;;1.60;99.90;;;;;;5012825;28;20494;-79
2023/01/26 11:02:29;;;;;;;2.30;1.75;;;1.50;99.90;;;;;;5012528;28;20057;-81
2023/01/26 11:05:03;;;;;;;4.70;3.00;;;1.60;99.90;;;;;;5011559;28;20560;-76
2023/01/26 11:07:37;;;;;;;9.27;4.40;;;1.50;99.90;;;;;;4996421;28;20446;-86
2023/01/26 11:10:30;;;;;;;5.35;2.13;;;1.60;99.90;;;;;;5012861;28;20032;-85
2023/01/26 11:13:16;;;;;;;6.35;3.38;;;1.50;99.90;;;;;;5011114;28;20097;-84
2023/01/26 11:15:49;;;;;;;1.98;1.48;;;1.50;99.90;;;;;;5013145;28;20064;-84
2023/01/26 11:18:43;;;;;;;3.97;1.95;;;1.50;99.90;;;;;;4985331;28;20034;-86
2023/01/26 11:21:47;;;;;;;7.55;1.95;;;1.50;99.90;;;;;;5012414;28;20042;-85
2023/01/26 11:27:50;;;;;;;;;;;;;;;;;;;;;
2023/01/26 11:30:33;;;;;;;4.32;2.08;;;1.40;99.90;;;;;;5012608;28;20033;-83
2023/01/26 11:33:24;;;;;;;4.88;3.53;;;1.40;99.90;;;;;;5013211;28;20038;-82
2023/01/26 11:36:09;;;;;;;4.43;3.20;;;1.40;99.90;;;;;;4993028;28;20498;-83
2023/01/26 11:38:54;;;;;;;3.58;1.85;;;1.60;99.90;;;;;;4992482;28;20121;-85
2023/01/26 11:42:05;;;;;;;2.30;1.58;;;1.60;99.90;;;;;;4979223;28;20146;-83
2023/01/26 11:44:57;;;;;;;4.78;2.38;;;1.60;99.90;;;;;;4939123;28;20120;-82
2023/01/26 11:47:44;;;;;;;2.63;1.83;;;1.60;99.90;;;;;;4986138;28;20034;-82
2023/01/26 11:50:32;;;;;;;3.78;2.15;;;1.60;99.90;;;;;;4989166;28;20057;-83
2023/01/26 11:53:43;;;;;;;3.38;2.22;;;1.60;99.90;;;;;;4972962;28;20023;-80
2023/01/26 11:56:23;;;;;;;2.72;1.38;;;1.60;99.90;;;;;;4976053;28;20088;-79
2023/01/26 11:58:59;;;;;;;11.07;2.85;;;1.50;99.90;;;;;;4983772;28;20102;-81
2023/01/26 12:01:39;;;;;;;3.53;1.67;;;1.50;99.90;;;;;;4985628;28;20034;-78
2023/01/26 12:04:05;;;;;;;5.25;2.10;;;1.50;99.90;;;;;;4989521;28;20395;-76
2023/01/26 12:06:39;;;;;;;4.10;2.45;;;1.40;99.90;;;;;;4991514;28;20041;-76
2023/01/26 12:09:20;;;;;;;4.78;3.72;;;1.30;99.90;;;;;;4997704;28;20037;-77
2023/01/26 12:11:59;;;;;;;6.85;3.53;;;1.40;99.90;;;;;;4990164;28;20045;-75
2023/01/26 12:14:36;;;;;;;10.95;2.97;;;1.30;99.90;;;;;;4992780;28;20053;-75
2023/01/26 12:17:23;;;;;;;5.03;2.38;;;1.30;99.90;;;;;;4967954;28;20033;-77
2023/01/26 12:20:23;;;;;;;3.58;2.95;;;1.30;99.90;;;;;;4981110;28;20030;-78
2023/01/26 12:23:22;;;;;;;10.07;2.80;;;1.30;99.90;;;;;;4977419;28;20085;-76
2023/01/26 12:26:08;;;;;;;3.22;2.22;;;1.20;99.90;;;;;;4976232;28;20493;-77
2023/01/26 12:28:44;;;;;;;7.30;4.43;;;1.10;99.90;;;;;;4974878;28;20446;-75
2023/01/26 12:31:40;;;;;;;6.63;3.70;;;1.00;99.90;;;;;;4991064;28;20181;-78
2023/01/26 12:34:12;;;;;;;23.25;3.42;;;1.10;99.90;;;;;;4982974;28;20545;-76
2023/01/26 12:37:24;;;;;;;4.70;2.28;;;1.20;99.90;;;;;;4989968;28;20497;-77
2023/01/26 12:40:03;;;;;;;5.13;3.17;;;1.20;99.90;;;;;;4975830;28;20026;-75
2023/01/26 12:42:46;;;;;;;8.25;3.75;;;1.20;99.90;;;;;;4975362;28;20056;-77
2023/01/26 12:45:31;;;;;;;7.38;4.10;;;1.10;99.90;;;;;;4974162;28;20081;-76
2023/01/26 12:48:18;;;;;;;8.23;4.07;;;1.20;99.90;;;;;;4973948;28;20556;-77
2023/01/26 12:51:00;;;;;;;5.22;3.60;;;1.20;99.90;;;;;;4973194;28;20034;-76
2023/01/26 12:53:51;;;;;;;10.60;3.33;;;1.20;99.90;;;;;;4955082;28;20037;-76
2023/01/26 12:56:56;;;;;;;4.80;3.20;;;1.10;99.90;;;;;;4965407;28;20544;-76
2023/01/26 12:59:31;;;;;;;5.05;3.20;;;1.10;99.90;;;;;;4990093;28;20403;-76
2023/01/26 13:01:57;;;;;;;10.23;4.68;;;1.10;99.90;;;;;;4973906;28;20505;-75
2023/01/26 13:04:23;;;;;;;5.93;2.38;;;1.20;99.90;;;;;;4988194;28;20038;-73
2023/01/26 13:07:31;;;;;;;6.57;3.58;;;1.10;99.90;;;;;;4972966;28;20470;-72
2023/01/26 13:10:28;;;;;;;3.75;2.40;;;1.20;99.90;;;;;;4950048;28;20073;-72
2023/01/26 13:12:59;;;;;;;4.20;2.53;;;1.30;99.90;;;;;;4986877;28;20046;-70
2023/01/26 13:15:30;;;;;;;;;;;1.20;99.90;;;;;;4973996;28;20052;-71
2023/01/26 13:18:03;;;;;;;5.87;3.33;;;1.30;99.90;;;;;;4973106;28;19924;-70
2023/01/26 13:20:48;;;;;;;10.43;3.63;;;1.20;99.90;;;;;;4987502;28;20052;-70
2023/01/26 13:23:40;;;;;;;8.43;4.10;;;1.30;99.90;;;;;;4990896;28;20108;-70
2023/01/26 13:26:18;;;;;;;6.18;3.20;;;1.20;99.90;;;;;;4972947;28;20062;-70
2023/01/26 13:28:46;;;;;;;2.38;2.17;;;1.20;99.90;;;;;;4988402;28;20061;-70
2023/01/26 13:31:30;;;;;;;9.23;4.10;;;1.10;99.90;;;;;;4973299;28;20054;-70
2023/01/26 13:34:01;;;;;;;11.20;5.50;;;1.10;99.90;;;;;;4987743;28;20058;-70
2023/01/26 13:36:33;;;;;;;10.07;3.45;;;1.20;99.90;;;;;;4972432;28;20034;-70
2023/01/26 13:39:13;;;;;;;7.88;3.90;;;1.20;99.90;;;;;;4987790;28;20038;-71
2023/01/26 13:41:46;;;;;;;7.82;3.53;;;1.20;99.90;;;;;;4964885;28;20552;-70
2023/01/26 13:44:29;;;;;;;7.03;4.47;;;1.10;99.90;;;;;;4986994;28;20030;-71
2023/01/26 13:47:09;;;;;;;6.65;3.08;;;1.20;99.90;;;;;;4973413;28;20072;-70
2023/01/26 13:49:41;;;;;;;8.02;2.67;;;1.20;99.90;;;;;;4987178;28;20042;-70
2023/01/26 13:52:24;;;;;;;3.78;2.70;;;1.10;99.90;;;;;;4990277;28;20506;-70
2023/01/26 13:54:53;;;;;;;7.22;2.97;;;1.10;99.90;;;;;;4973429;28;20053;-70
2023/01/26 13:57:29;;;;;;;3.92;2.70;;;1.10;99.90;;;;;;4982073;28;20248;-70
2023/01/26 13:59:59;;;;;;;5.43;3.08;;;1.10;99.90;;;;;;4972937;28;20171;-70
2023/01/26 14:02:33;;;;;;;10.80;3.78;;;1.10;99.90;;;;;;4973861;28;20100;-70
2023/01/26 14:05:02;;;;;;;5.68;2.95;;;1.20;99.90;;;;;;4991201;28;20033;-70
2023/01/26 14:07:36;;;;;;;6.78;3.28;;;1.10;99.90;;;;;;4976274;28;20057;-70
2023/01/26 14:10:04;;;;;;;5.97;3.63;;;1.10;99.90;;;;;;4977266;28;20097;-70
2023/01/26 14:12:34;;;;;;;4.72;3.03;;;1.00;99.90;;;;;;4987894;28;20041;-70